Time;durP1;ratioP1;P1;durP2;ratioP2;P2;SDS_P1;SDS_P2;PMS_P1;PMS_P2;Temp;Humidity;BMP_temperature;BMP_pressure;BME280_temperature;BME280_humidity;BME280_pressure;Samples;Min_cycle;Max_cycle;Signal;HPM_P1;HPM_P2
2021/09/10 00:00:59;;;;;;;9.07;8.07;;;20.90;99.90;;;;;;5098907;28;20438;-83
2021/09/10 00:03:26;;;;;;;12.50;9.73;;;20.80;99.90;;;;;;5098528;28;20526;-83
2021/09/10 00:05:53;;;;;;;8.90;8.00;;;20.80;99.90;;;;;;5097758;28;20820;-83
2021/09/10 00:08:19;;;;;;;13.70;9.10;;;20.80;99.90;;;;;;5098507;28;20451;-84
2021/09/10 00:10:46;;;;;;;11.00;8.97;;;20.80;99.90;;;;;;5097368;28;20453;-83
2021/09/10 00:13:14;;;;;;;10.03;8.80;;;20.70;99.90;;;;;;5077573;28;20489;-83
2021/09/10 00:15:41;;;;;;;11.33;8.87;;;20.70;99.90;;;;;;5078786;28;20550;-83
2021/09/10 00:18:08;;;;;;;9.87;8.40;;;20.60;99.90;;;;;;5079092;28;20531;-83
2021/09/10 00:20:35;;;;;;;11.13;9.00;;;20.60;99.90;;;;;;5080400;28;20507;-83
2021/09/10 00:23:02;;;;;;;9.83;8.83;;;20.50;99.90;;;;;;5079698;28;20471;-83
2021/09/10 00:25:28;;;;;;;10.17;8.90;;;20.50;99.90;;;;;;5080911;28;20901;-83
2021/09/10 00:27:55;;;;;;;9.37;8.37;;;20.40;99.90;;;;;;5098720;28;20447;-83
2021/09/10 00:30:23;;;;;;;10.33;8.67;;;20.40;99.90;;;;;;5098628;28;20790;-83
2021/09/10 00:32:50;;;;;;;10.43;9.37;;;20.50;99.90;;;;;;5099063;28;20493;-83
2021/09/10 00:35:17;;;;;;;10.03;8.90;;;20.50;99.90;;;;;;5098976;28;20517;-84
2021/09/10 00:37:44;;;;;;;9.80;8.80;;;20.40;99.90;;;;;;5098694;28;20526;-84
2021/09/10 00:40:11;;;;;;;12.67;9.23;;;20.40;99.90;;;;;;5096213;28;20451;-82
2021/09/10 00:42:38;;;;;;;11.57;8.10;;;20.40;99.90;;;;;;5092104;28;20460;-83
2021/09/10 00:45:06;;;;;;;10.70;8.00;;;20.40;99.90;;;;;;5079404;28;20534;-83
2021/09/10 00:47:34;;;;;;;10.30;8.90;;;20.30;99.90;;;;;;5078733;28;20546;-83
2021/09/10 00:50:02;;;;;;;11.17;8.87;;;20.30;99.90;;;;;;5080234;28;20451;-83
2021/09/10 00:52:29;;;;;;;10.60;8.90;;;20.20;99.90;;;;;;5077948;28;20487;-84
2021/09/10 00:54:56;;;;;;;9.90;8.90;;;20.20;99.90;;;;;;5079779;28;20538;-83
2021/09/10 00:57:22;;;;;;;12.33;10.00;;;20.20;99.90;;;;;;5096576;28;20478;-83
2021/09/10 00:59:49;;;;;;;11.13;9.73;;;20.30;99.90;;;;;;5098672;28;20514;-83
2021/09/10 01:02:17;;;;;;;12.17;9.60;;;20.30;99.90;;;;;;5100016;28;20632;-83
2021/09/10 01:04:46;;;;;;;11.10;8.77;;;20.30;99.90;;;;;;5106951;28;20488;-83
2021/09/10 01:07:13;;;;;;;11.60;9.23;;;20.20;99.90;;;;;;5102492;28;20525;-84
2021/09/10 01:09:41;;;;;;;10.17;8.87;;;20.20;99.90;;;;;;5102706;28;20846;-83
2021/09/10 01:12:09;;;;;;;11.40;9.20;;;20.30;99.90;;;;;;5084649;28;20467;-83
2021/09/10 01:14:36;;;;;;;10.97;9.70;;;20.30;99.90;;;;;;5081138;28;20496;-83
2021/09/10 01:17:03;;;;;;;10.20;8.50;;;20.40;99.90;;;;;;5081819;28;20462;-84
2021/09/10 01:19:32;;;;;;;10.47;9.10;;;20.50;99.90;;;;;;5081232;28;20503;-84
2021/09/10 01:22:02;;;;;;;10.03;9.03;;;20.50;99.90;;;;;;5081321;28;20551;-83
2021/09/10 01:24:33;;;;;;;12.77;9.03;;;20.60;99.90;;;;;;5081888;28;20424;-83
2021/09/10 01:27:01;;;;;;;10.47;8.77;;;20.70;99.90;;;;;;5081690;28;20991;-84
2021/09/10 01:29:28;;;;;;;9.83;8.80;;;20.70;99.90;;;;;;5080816;28;20820;-83
2021/09/10 01:31:56;;;;;;;10.50;8.40;;;20.70;99.90;;;;;;5081384;28;20471;-83
2021/09/10 01:34:22;;;;;;;9.53;8.53;;;20.60;99.90;;;;;;5093872;28;20551;-83
2021/09/10 01:36:50;;;;;;;11.63;9.37;;;20.50;99.90;;;;;;5082550;28;20485;-83
2021/09/10 01:39:17;;;;;;;10.93;9.10;;;20.50;99.90;;;;;;5081669;28;20451;-83
2021/09/10 01:41:45;;;;;;;11.23;10.03;;;20.50;99.90;;;;;;5080497;28;20462;-83
2021/09/10 01:44:12;;;;;;;14.40;9.20;;;20.40;99.90;;;;;;5081671;28;20546;-84
2021/09/10 01:46:40;;;;;;;10.80;8.80;;;20.40;99.90;;;;;;5080775;28;20527;-84
2021/09/10 01:49:07;;;;;;;10.93;9.73;;;20.40;99.90;;;;;;5081058;28;20456;-84
2021/09/10 01:51:34;;;;;;;13.17;9.40;;;20.30;99.90;;;;;;5081961;28;20448;-83
2021/09/10 01:54:01;;;;;;;12.30;9.80;;;20.20;99.90;;;;;;5081036;28;20494;-83
2021/09/10 01:56:29;;;;;;;13.10;9.40;;;20.20;99.90;;;;;;5085545;28;20507;-83
2021/09/10 01:58:57;;;;;;;11.73;8.97;;;20.10;99.90;;;;;;5084609;28;20476;-83
2021/09/10 02:01:25;;;;;;;11.10;9.73;;;20.10;99.90;;;;;;5088853;28;20474;-83
2021/09/10 02:03:52;;;;;;;10.33;9.23;;;20.10;99.90;;;;;;5100782;28;20462;-84
2021/09/10 02:06:20;;;;;;;13.40;9.20;;;20.10;99.90;;;;;;5100842;28;20481;-83
2021/09/10 02:08:47;;;;;;;10.63;9.53;;;20.10;99.90;;;;;;5101251;28;20763;-84
2021/09/10 02:11:14;;;;;;;9.27;8.37;;;20.00;99.90;;;;;;5101180;28;20854;-84
2021/09/10 02:13:41;;;;;;;12.60;9.33;;;20.00;99.90;;;;;;5100387;28;20501;-84
2021/09/10 02:16:11;;;;;;;12.60;9.70;;;20.00;99.90;;;;;;5100846;28;20514;-83
2021/09/10 02:18:38;;;;;;;13.50;10.53;;;20.00;99.90;;;;;;5089057;28;20475;-83
2021/09/10 02:21:05;;;;;;;10.93;9.83;;;20.00;99.90;;;;;;5080696;28;20458;-83
2021/09/10 02:23:32;;;;;;;11.40;9.10;;;20.00;99.90;;;;;;5083428;28;20535;-83
2021/09/10 02:25:59;;;;;;;10.17;8.80;;;19.90;99.90;;;;;;5081037;28;20526;-83
2021/09/10 02:28:26;;;;;;;12.13;9.60;;;19.90;99.90;;;;;;5081254;28;20483;-83
2021/09/10 02:30:53;;;;;;;10.93;9.20;;;19.90;99.90;;;;;;5079852;28;20456;-84
2021/09/10 02:33:22;;;;;;;11.90;9.10;;;20.00;99.90;;;;;;5085275;28;20550;-83
2021/09/10 02:35:48;;;;;;;10.80;9.43;;;19.90;99.90;;;;;;5082659;28;20501;-83
2021/09/10 02:38:15;;;;;;;11.60;10.07;;;20.00;99.90;;;;;;5080153;28;20455;-83
2021/09/10 02:40:42;;;;;;;11.17;9.17;;;20.00;99.90;;;;;;5080205;28;20450;-83
2021/09/10 02:43:09;;;;;;;12.20;9.83;;;20.00;99.90;;;;;;5079318;28;20471;-84
2021/09/10 02:45:36;;;;;;;9.57;8.57;;;20.10;99.90;;;;;;5079407;28;20448;-84
2021/09/10 02:48:03;;;;;;;11.00;9.83;;;20.10;99.90;;;;;;5078570;28;20448;-83
2021/09/10 02:50:31;;;;;;;11.23;10.13;;;20.20;99.90;;;;;;5079320;28;20487;-83
2021/09/10 02:52:58;;;;;;;11.30;9.53;;;20.20;99.90;;;;;;5093813;28;20843;-83
2021/09/10 02:55:25;;;;;;;11.53;9.77;;;20.20;99.90;;;;;;5100238;28;20748;-84
2021/09/10 02:57:51;;;;;;;13.10;9.97;;;20.20;99.90;;;;;;5098927;28;20511;-83
2021/09/10 03:00:18;;;;;;;10.90;9.63;;;20.20;99.90;;;;;;5099367;28;20451;-83
2021/09/10 03:02:45;;;;;;;11.03;9.83;;;20.10;99.90;;;;;;5098843;28;20887;-84
2021/09/10 03:05:13;;;;;;;14.27;9.90;;;20.10;99.90;;;;;;5099794;28;20420;-83
2021/09/10 03:07:41;;;;;;;12.10;9.80;;;20.10;99.90;;;;;;5099077;28;20903;-84
2021/09/10 03:10:09;;;;;;;12.07;10.13;;;20.10;99.90;;;;;;5079646;28;20458;-83
2021/09/10 03:12:37;;;;;;;10.20;9.20;;;20.10;99.90;;;;;;5079218;28;20475;-83
2021/09/10 03:15:05;;;;;;;11.60;9.37;;;20.10;99.90;;;;;;5078903;28;20476;-84
2021/09/10 03:17:32;;;;;;;10.30;9.30;;;20.10;99.90;;;;;;5078702;28;20538;-83
2021/09/10 03:19:59;;;;;;;10.60;9.53;;;20.20;99.90;;;;;;5078130;28;20538;-83
2021/09/10 03:22:26;;;;;;;11.10;10.00;;;20.20;99.90;;;;;;5082286;28;20956;-83
2021/09/10 03:24:54;;;;;;;11.73;10.50;;;20.30;99.90;;;;;;5088440;28;20530;-83
2021/09/10 03:27:21;;;;;;;11.50;10.00;;;20.20;99.90;;;;;;5114523;28;20518;-83
2021/09/10 03:29:48;;;;;;;12.27;10.37;;;20.20;99.90;;;;;;5116024;28;20498;-82
2021/09/10 03:32:14;;;;;;;11.17;9.67;;;20.10;99.90;;;;;;5115380;28;20510;-82
2021/09/10 03:34:41;;;;;;;13.90;9.40;;;20.10;99.90;;;;;;5115957;28;20513;-83
2021/09/10 03:37:08;;;;;;;11.60;10.30;;;20.10;99.90;;;;;;5111319;28;20459;-84
2021/09/10 03:39:35;;;;;;;12.30;10.10;;;20.10;99.90;;;;;;5101495;28;20499;-83
2021/09/10 03:42:04;;;;;;;13.67;10.47;;;20.10;99.90;;;;;;5090334;28;20428;-83
2021/09/10 03:44:31;;;;;;;13.67;10.40;;;20.10;99.90;;;;;;5090123;28;20467;-83
2021/09/10 03:46:59;;;;;;;12.40;9.77;;;20.10;99.90;;;;;;5094430;28;20432;-83
2021/09/10 03:49:26;;;;;;;10.73;9.37;;;20.10;99.90;;;;;;5084820;28;20534;-84
2021/09/10 03:51:53;;;;;;;11.00;9.83;;;20.10;99.90;;;;;;5079214;28;20456;-84
2021/09/10 03:54:19;;;;;;;14.43;10.60;;;20.10;99.90;;;;;;5084386;28;20566;-83
2021/09/10 03:56:46;;;;;;;11.70;10.50;;;20.10;99.90;;;;;;5098585;28;20451;-84
2021/09/10 03:59:14;;;;;;;11.87;10.63;;;20.00;99.90;;;;;;5098948;28;20546;-84
2021/09/10 04:01:41;;;;;;;15.23;11.40;;;20.10;99.90;;;;;;5099457;28;20482;-84
2021/09/10 04:04:08;;;;;;;13.77;10.80;;;20.10;99.90;;;;;;5099760;28;20477;-84
2021/09/10 04:06:35;;;;;;;11.77;10.57;;;20.20;99.90;;;;;;5099562;28;20962;-84
2021/09/10 04:09:02;;;;;;;10.73;9.63;;;20.20;99.90;;;;;;5091251;28;20531;-84
2021/09/10 04:11:28;;;;;;;12.50;10.57;;;20.10;99.90;;;;;;5080335;28;20886;-84
2021/09/10 04:13:55;;;;;;;10.77;9.67;;;20.10;99.90;;;;;;5082373;28;20582;-84
2021/09/10 04:16:23;;;;;;;12.60;11.30;;;20.10;99.90;;;;;;5082166;28;20516;-84
2021/09/10 04:18:50;;;;;;;12.60;10.93;;;20.10;99.90;;;;;;5081427;28;20490;-84
2021/09/10 04:21:17;;;;;;;13.97;10.50;;;20.10;99.90;;;;;;5080574;28;20487;-84
2021/09/10 04:23:44;;;;;;;12.57;11.37;;;20.10;99.90;;;;;;5089715;28;20467;-84
2021/09/10 04:26:11;;;;;;;12.13;10.93;;;20.10;99.90;;;;;;5099572;28;20546;-84
2021/09/10 04:28:37;;;;;;;12.67;11.33;;;20.10;99.90;;;;;;5099531;28;20497;-84
2021/09/10 04:31:04;;;;;;;11.77;10.57;;;20.00;99.90;;;;;;5101873;28;20514;-84
2021/09/10 04:33:32;;;;;;;13.90;11.57;;;20.10;99.90;;;;;;5098853;28;20483;-84
2021/09/10 04:35:59;;;;;;;11.73;10.53;;;20.10;99.90;;;;;;5099785;28;20453;-84
2021/09/10 04:38:26;;;;;;;13.00;10.73;;;20.10;99.90;;;;;;5090177;28;20462;-84
2021/09/10 04:40:53;;;;;;;11.97;10.33;;;20.10;99.90;;;;;;5082789;28;20535;-84
2021/09/10 04:43:20;;;;;;;14.57;11.40;;;20.10;99.90;;;;;;5083811;28;20479;-84
2021/09/10 04:45:46;;;;;;;12.17;10.20;;;20.10;99.90;;;;;;5082484;28;20625;-84
2021/09/10 04:48:14;;;;;;;13.03;11.27;;;20.00;99.90;;;;;;5082897;28;20457;-84
2021/09/10 04:50:42;;;;;;;12.60;11.30;;;20.10;99.90;;;;;;5080995;28;20804;-85
2021/09/10 04:53:09;;;;;;;12.23;10.93;;;20.00;99.90;;;;;;5097574;28;20485;-85
2021/09/10 04:55:36;;;;;;;13.23;11.50;;;19.90;99.90;;;;;;5104517;28;20569;-85
2021/09/10 04:58:02;;;;;;;13.00;10.67;;;19.80;99.90;;;;;;5105188;28;20427;-85
2021/09/10 05:00:29;;;;;;;12.50;11.10;;;19.80;99.90;;;;;;5105463;28;20516;-85
2021/09/10 05:02:56;;;;;;;12.80;11.50;;;19.90;99.90;;;;;;5104603;28;20545;-85
2021/09/10 05:05:23;;;;;;;12.97;11.60;;;19.80;99.90;;;;;;5105760;28;20537;-85
2021/09/10 05:07:53;;;;;;;13.17;11.67;;;19.70;99.90;;;;;;5087067;28;20447;-85
2021/09/10 05:10:20;;;;;;;12.67;11.10;;;19.60;99.90;;;;;;5089206;28;20478;-84
2021/09/10 05:12:47;;;;;;;14.07;12.10;;;19.60;99.90;;;;;;5083268;28;20565;-85
2021/09/10 05:15:14;;;;;;;13.07;11.73;;;19.60;99.90;;;;;;5080362;28;20955;-85
2021/09/10 05:17:40;;;;;;;13.63;11.53;;;19.60;99.90;;;;;;5079933;28;20948;-85
2021/09/10 05:20:08;;;;;;;13.07;11.77;;;19.70;99.90;;;;;;5080252;28;20570;-85
2021/09/10 05:22:37;;;;;;;12.03;10.73;;;19.60;99.90;;;;;;5099711;28;20477;-85
2021/09/10 05:25:07;;;;;;;13.33;10.97;;;19.70;99.90;;;;;;5100755;28;20455;-85
2021/09/10 05:27:34;;;;;;;13.10;11.70;;;19.70;99.90;;;;;;5100378;28;20794;-85
2021/09/10 05:30:01;;;;;;;12.63;11.23;;;19.60;99.90;;;;;;5100996;28;20962;-85
2021/09/10 05:32:28;;;;;;;12.73;11.33;;;19.60;99.90;;;;;;5100015;28;20843;-85
2021/09/10 05:34:55;;;;;;;12.93;11.63;;;19.70;99.90;;;;;;5097874;28;21012;-85
2021/09/10 05:37:22;;;;;;;12.20;10.90;;;19.70;99.90;;;;;;5080007;28;20450;-85
2021/09/10 05:39:49;;;;;;;13.00;10.50;;;19.60;99.90;;;;;;5079123;28;20487;-85
2021/09/10 05:42:17;;;;;;;13.83;11.37;;;19.50;99.90;;;;;;5078081;28;20451;-85
2021/09/10 05:44:44;;;;;;;13.00;11.60;;;19.60;99.90;;;;;;5078354;28;20475;-85
2021/09/10 05:47:10;;;;;;;13.20;11.53;;;19.50;99.90;;;;;;5078771;28;20454;-85
2021/09/10 05:49:37;;;;;;;14.27;11.47;;;19.60;99.90;;;;;;5082756;28;20902;-86
2021/09/10 05:52:09;;;;;;;16.10;11.00;;;19.80;99.90;;;;;;5103187;28;20451;-86
2021/09/10 05:54:36;;;;;;;14.67;11.67;;;19.70;99.90;;;;;;5102679;28;20482;-85
2021/09/10 05:57:04;;;;;;;12.40;11.17;;;19.70;99.90;;;;;;5104866;28;20542;-85
2021/09/10 05:59:32;;;;;;;17.00;12.40;;;19.70;99.90;;;;;;5100406;28;20561;-85
2021/09/10 06:01:59;;;;;;;14.40;10.73;;;19.70;99.90;;;;;;5100566;28;20453;-86
2021/09/10 06:04:25;;;;;;;12.27;10.90;;;19.70;99.90;;;;;;5093573;28;20498;-84
2021/09/10 06:06:52;;;;;;;15.57;11.13;;;19.80;99.90;;;;;;5080495;28;20826;-85
2021/09/10 06:09:21;;;;;;;12.63;11.40;;;19.90;99.90;;;;;;5082126;28;20787;-84
2021/09/10 06:11:48;;;;;;;11.67;10.50;;;19.90;99.90;;;;;;5084744;28;20475;-85
2021/09/10 06:14:15;;;;;;;14.53;11.03;;;20.10;99.90;;;;;;5081819;28;20488;-85
2021/09/10 06:16:43;;;;;;;12.70;11.40;;;20.20;99.90;;;;;;5081850;28;20466;-85
2021/09/10 06:19:10;;;;;;;13.63;12.20;;;20.20;99.90;;;;;;5090355;28;20447;-84
2021/09/10 06:21:37;;;;;;;13.20;11.33;;;20.30;99.90;;;;;;5101219;28;21046;-84
2021/09/10 06:24:04;;;;;;;13.27;11.93;;;20.40;99.90;;;;;;5098369;28;20466;-84
2021/09/10 06:26:31;;;;;;;12.30;11.00;;;20.40;99.90;;;;;;5097076;28;20801;-78
2021/09/10 06:28:58;;;;;;;12.43;11.17;;;20.30;99.90;;;;;;5095379;28;20450;-77
2021/09/10 06:31:25;;;;;;;15.80;11.47;;;20.40;99.90;;;;;;5095999;28;20821;-78
2021/09/10 06:33:53;;;;;;;11.00;9.63;;;20.40;99.90;;;;;;5084198;28;20442;-79
2021/09/10 06:36:20;;;;;;;12.23;11.07;;;20.50;99.90;;;;;;5076744;28;20936;-79
2021/09/10 06:38:46;;;;;;;12.20;11.00;;;20.60;99.90;;;;;;5076791;28;20450;-80
2021/09/10 06:41:13;;;;;;;12.67;10.93;;;20.60;99.90;;;;;;5076164;28;20538;-79
2021/09/10 06:43:40;;;;;;;13.27;10.33;;;20.70;99.90;;;;;;5078037;28;20464;-78
2021/09/10 06:46:07;;;;;;;15.60;10.83;;;20.70;99.90;;;;;;5079437;28;20526;-78
2021/09/10 06:48:34;;;;;;;13.10;11.67;;;20.70;99.90;;;;;;5095332;28;20453;-79
2021/09/10 06:51:02;;;;;;;14.70;10.10;;;20.80;99.90;;;;;;5111284;28;20435;-82
2021/09/10 06:53:29;;;;;;;13.30;10.50;;;20.90;99.90;;;;;;5107969;28;20498;-86
2021/09/10 06:55:56;;;;;;;14.60;10.70;;;21.00;99.90;;;;;;5110452;28;20990;-84
2021/09/10 06:58:23;;;;;;;12.03;10.83;;;21.20;99.90;;;;;;5107764;28;20454;-84
2021/09/10 07:00:50;;;;;;;12.43;11.07;;;21.30;99.90;;;;;;5102138;28;20449;-84
2021/09/10 07:03:17;;;;;;;11.17;9.73;;;21.30;99.90;;;;;;5083079;28;20514;-83
2021/09/10 07:05:43;;;;;;;13.67;10.87;;;21.40;99.90;;;;;;5081358;28;20551;-83
2021/09/10 07:08:12;;;;;;;15.77;11.10;;;21.40;99.90;;;;;;5081139;28;20448;-83
2021/09/10 07:10:38;;;;;;;11.20;9.77;;;21.40;99.90;;;;;;5081010;28;20507;-84
2021/09/10 07:13:05;;;;;;;12.10;10.47;;;21.50;99.90;;;;;;5081137;28;20491;-83
2021/09/10 07:15:32;;;;;;;15.07;10.60;;;21.50;99.90;;;;;;5081553;28;20971;-82
2021/09/10 07:17:59;;;;;;;12.77;11.20;;;21.60;99.90;;;;;;5099887;28;20941;-78
2021/09/10 07:20:26;;;;;;;13.00;10.37;;;21.60;99.90;;;;;;5099427;28;20456;-81
2021/09/10 07:22:53;;;;;;;14.00;10.07;;;21.60;99.90;;;;;;5099573;28;20466;-80
2021/09/10 07:25:21;;;;;;;10.80;9.70;;;21.80;99.90;;;;;;5098688;28;20465;-80
2021/09/10 07:27:48;;;;;;;12.57;10.20;;;21.90;99.90;;;;;;5098642;28;20460;-81
2021/09/10 07:30:15;;;;;;;11.47;10.27;;;22.00;99.90;;;;;;5098265;28;20438;-80
2021/09/10 07:32:41;;;;;;;12.07;8.67;;;22.10;99.90;;;;;;5079894;28;20476;-81
2021/09/10 07:35:10;;;;;;;12.23;9.93;;;22.10;99.90;;;;;;5078248;28;20479;-82
2021/09/10 07:37:37;;;;;;;12.10;9.50;;;22.30;99.90;;;;;;5077753;28;20452;-80
2021/09/10 07:40:05;;;;;;;13.07;9.90;;;22.30;99.90;;;;;;5076987;28;20454;-80
2021/09/10 07:42:33;;;;;;;10.43;9.43;;;22.40;99.90;;;;;;5079194;28;20499;-82
2021/09/10 07:45:00;;;;;;;14.70;8.87;;;22.40;99.90;;;;;;5082855;28;20449;-82
2021/09/10 07:47:27;;;;;;;10.57;9.47;;;22.60;99.90;;;;;;5105876;28;20522;-82
2021/09/10 07:49:54;;;;;;;10.97;9.40;;;22.70;99.90;;;;;;5110858;28;20451;-82
2021/09/10 07:52:20;;;;;;;10.27;9.27;;;22.80;99.90;;;;;;5111064;28;20432;-82
2021/09/10 07:54:47;;;;;;;11.27;9.20;;;22.80;99.90;;;;;;5101891;28;20486;-82
2021/09/10 07:57:14;;;;;;;14.07;10.70;;;23.00;99.90;;;;;;5097911;28;20448;-82
2021/09/10 07:59:42;;;;;;;10.53;9.43;;;23.10;99.90;;;;;;5093228;28;20602;-81
2021/09/10 08:02:09;;;;;;;11.30;9.10;;;23.20;99.90;;;;;;5083759;28;20494;-80
2021/09/10 08:04:36;;;;;;;11.37;7.80;;;23.30;99.90;;;;;;5079612;28;20452;-82
2021/09/10 08:07:03;;;;;;;10.50;8.67;;;23.50;99.90;;;;;;5077644;28;20527;-81
2021/09/10 08:09:30;;;;;;;9.10;8.10;;;23.60;99.90;;;;;;5089415;28;20464;-78
2021/09/10 08:11:56;;;;;;;9.83;8.83;;;23.70;99.90;;;;;;5089978;28;20454;-78
2021/09/10 08:14:23;;;;;;;10.40;9.30;;;23.70;99.90;;;;;;5097740;28;20470;-78
2021/09/10 08:16:51;;;;;;;10.67;8.87;;;23.70;99.90;;;;;;5101231;28;20877;-80
2021/09/10 08:19:18;;;;;;;9.00;8.10;;;23.80;99.90;;;;;;5098446;28;20512;-78
2021/09/10 08:21:45;;;;;;;9.50;8.50;;;23.90;99.90;;;;;;5097597;28;20442;-78
2021/09/10 08:24:12;;;;;;;9.70;8.80;;;24.00;99.90;;;;;;5097863;28;20473;-79
2021/09/10 08:26:39;;;;;;;9.97;8.70;;;24.00;99.90;;;;;;5080498;28;20450;-79
2021/09/10 08:29:06;;;;;;;10.40;9.27;;;24.00;99.90;;;;;;5078064;28;20440;-79
2021/09/10 08:31:33;;;;;;;8.93;8.03;;;24.10;99.90;;;;;;5078987;28;20521;-79
2021/09/10 08:34:02;;;;;;;10.53;8.30;;;24.20;99.90;;;;;;5078252;28;20549;-79
2021/09/10 08:36:31;;;;;;;9.60;8.43;;;24.10;99.90;;;;;;5080951;28;21026;-79
2021/09/10 08:38:58;;;;;;;10.17;8.30;;;24.10;99.90;;;;;;5079306;28;20436;-79
2021/09/10 08:41:27;;;;;;;10.10;8.40;;;24.00;99.90;;;;;;5098857;28;20464;-80
2021/09/10 08:43:56;;;;;;;8.77;7.93;;;24.00;99.90;;;;;;5098154;28;20466;-79
2021/09/10 08:46:24;;;;;;;12.63;8.40;;;23.80;99.90;;;;;;5099195;28;20819;-79
2021/09/10 08:48:51;;;;;;;11.40;8.67;;;23.80;99.90;;;;;;5100802;28;20772;-80
2021/09/10 08:51:20;;;;;;;11.03;8.43;;;23.70;99.90;;;;;;5098399;28;20533;-80
2021/09/10 08:53:47;;;;;;;13.43;9.10;;;23.80;99.90;;;;;;5095624;28;20562;-78
2021/09/10 08:56:14;;;;;;;10.03;8.10;;;23.80;99.90;;;;;;5084114;28;20474;-79
2021/09/10 08:58:41;;;;;;;8.17;7.27;;;23.70;99.90;;;;;;5084586;28;20970;-78
2021/09/10 09:01:08;;;;;;;10.03;9.00;;;23.60;99.90;;;;;;5078616;28;20448;-79
2021/09/10 09:03:36;;;;;;;10.67;9.57;;;23.60;99.90;;;;;;5077024;28;20482;-79
2021/09/10 09:06:03;;;;;;;12.57;9.07;;;23.70;99.90;;;;;;5077854;28;20462;-79
2021/09/10 09:08:32;;;;;;;9.53;8.53;;;23.80;99.90;;;;;;5082121;28;20460;-78
2021/09/10 09:11:01;;;;;;;11.97;9.63;;;23.80;99.90;;;;;;5103994;28;20510;-78
2021/09/10 09:13:31;;;;;;;12.90;8.30;;;23.90;99.90;;;;;;5098712;28;20482;-78
2021/09/10 09:16:20;;;;;;;10.53;8.63;;;23.90;99.90;;;;;;5098339;28;20478;-80
2021/09/10 09:18:49;;;;;;;11.30;9.10;;;24.00;99.90;;;;;;5078601;28;20500;-79
2021/09/10 09:21:21;;;;;;;8.83;7.93;;;24.10;99.90;;;;;;5078777;28;20531;-79
2021/09/10 09:23:51;;;;;;;9.83;8.83;;;24.30;99.90;;;;;;5078847;28;20476;-78
2021/09/10 09:26:20;;;;;;;9.30;8.37;;;24.40;99.90;;;;;;5095227;28;20447;-79
2021/09/10 09:28:48;;;;;;;9.60;8.60;;;24.50;99.90;;;;;;5095968;28;20502;-79
2021/09/10 09:31:19;;;;;;;10.70;8.70;;;24.60;99.90;;;;;;5091531;28;20461;-79
2021/09/10 09:33:47;;;;;;;9.30;8.40;;;24.70;99.90;;;;;;5101320;28;20559;-79
2021/09/10 09:36:15;;;;;;;11.23;9.00;;;24.80;99.90;;;;;;5097692;28;20478;-79
2021/09/10 09:38:44;;;;;;;10.43;8.97;;;24.70;99.90;;;;;;5100000;28;20621;-80
2021/09/10 09:41:14;;;;;;;11.23;9.13;;;24.80;99.80;;;;;;5100059;28;20454;-80
2021/09/10 09:43:43;;;;;;;10.07;8.97;;;24.90;99.90;;;;;;5098657;28;20473;-80
2021/09/10 09:46:11;;;;;;;11.33;10.17;;;25.00;99.90;;;;;;5088122;28;20505;-79
2021/09/10 09:48:39;;;;;;;11.43;10.20;;;25.00;99.90;;;;;;5079851;28;20480;-79
2021/09/10 09:51:08;;;;;;;10.90;9.40;;;25.00;99.90;;;;;;5082252;28;20452;-79
2021/09/10 09:53:36;;;;;;;10.97;9.50;;;25.00;99.90;;;;;;5084949;28;20525;-79
2021/09/10 09:56:04;;;;;;;12.83;10.20;;;25.00;99.90;;;;;;5084801;28;20473;-79
2021/09/10 09:58:32;;;;;;;10.60;9.50;;;24.80;99.90;;;;;;5083394;28;20503;-79
2021/09/10 10:01:00;;;;;;;11.70;9.63;;;24.90;99.90;;;;;;5078768;28;20548;-80
2021/09/10 10:03:27;;;;;;;9.53;8.60;;;25.10;99.90;;;;;;5081185;28;20474;-79
2021/09/10 10:06:07;;;;;;;11.53;9.03;;;25.20;99.90;;;;;;5077313;28;20518;-79
2021/09/10 10:08:41;;;;;;;10.47;9.00;;;25.30;99.50;;;;;;5077165;28;20436;-79
2021/09/10 10:11:11;;;;;;;11.30;9.90;;;25.50;99.50;;;;;;5077587;28;20439;-78
2021/09/10 10:13:40;;;;;;;10.40;9.30;;;25.50;99.30;;;;;;5077019;28;20543;-78
2021/09/10 10:16:07;;;;;;;12.57;9.90;;;25.50;99.30;;;;;;5077796;28;20579;-80
2021/09/10 10:18:41;;;;;;;10.23;9.10;;;25.50;99.00;;;;;;5078322;28;20458;-79
2021/09/10 10:21:09;;;;;;;10.53;9.40;;;25.40;98.60;;;;;;5078385;28;20445;-79
2021/09/10 10:23:58;;;;;;;12.07;9.53;;;25.60;98.60;;;;;;5076560;28;20468;-79
2021/09/10 10:26:40;;;;;;;11.30;10.20;;;25.40;99.00;;;;;;5077664;28;20465;-80
2021/09/10 10:29:11;;;;;;;9.63;8.63;;;25.30;99.10;;;;;;5076954;28;20538;-80
2021/09/10 10:31:57;;;;;;;9.67;8.77;;;25.30;98.70;;;;;;5077649;28;20434;-79
2021/09/10 10:34:25;;;;;;;10.80;8.40;;;25.50;98.40;;;;;;5075735;28;21048;-79
2021/09/10 10:36:52;;;;;;;10.00;8.33;;;25.70;97.70;;;;;;5090923;28;20955;-79
2021/09/10 10:39:26;;;;;;;10.93;8.73;;;25.70;97.70;;;;;;5097367;28;20570;-80
2021/09/10 10:41:56;;;;;;;9.80;8.77;;;25.80;97.50;;;;;;5097139;28;20449;-80
2021/09/10 10:44:49;;;;;;;9.27;8.27;;;25.80;97.50;;;;;;5097327;28;20561;-80
2021/09/10 10:49:45;;;;;;;9.70;8.50;;;25.90;97.60;;;;;;5135153;27;20479;-79
2021/09/10 10:52:33;;;;;;;11.70;8.93;;;25.90;97.40;;;;;;5136440;27;20487;-80
2021/09/10 10:55:30;;;;;;;9.23;8.33;;;25.60;97.60;;;;;;5124222;27;20531;-88
2021/09/10 10:58:22;;;;;;;9.80;8.30;;;25.70;97.50;;;;;;5114193;28;20841;-82
2021/09/10 11:00:52;;;;;;;9.60;8.63;;;25.70;97.10;;;;;;5098310;28;20538;-82
2021/09/10 11:03:38;;;;;;;13.03;9.30;;;25.50;97.40;;;;;;5098582;28;20437;-80
2021/09/10 11:06:37;;;;;;;10.37;9.27;;;25.50;97.50;;;;;;5097619;28;20428;-80
2021/09/10 11:09:09;;;;;;;9.80;8.80;;;25.50;97.70;;;;;;5098573;28;20479;-81
2021/09/10 11:11:36;;;;;;;9.60;8.60;;;25.50;97.80;;;;;;5098640;28;20433;-82
2021/09/10 11:14:08;;;;;;;9.33;8.33;;;25.60;97.50;;;;;;5099977;28;20458;-81
2021/09/10 11:16:36;;;;;;;8.83;7.93;;;25.70;96.80;;;;;;5102535;28;20498;-81
2021/09/10 11:19:04;;;;;;;9.20;8.03;;;25.80;96.60;;;;;;5113218;28;20888;-80
2021/09/10 11:21:32;;;;;;;9.60;8.40;;;25.90;96.60;;;;;;5121299;28;20448;-79
2021/09/10 11:24:10;;;;;;;9.53;8.37;;;25.90;96.30;;;;;;5120090;28;20947;-79
2021/09/10 11:26:38;;;;;;;10.00;8.73;;;26.00;96.30;;;;;;5117201;28;20480;-81
2021/09/10 11:29:14;;;;;;;11.00;8.67;;;26.00;96.30;;;;;;5119467;28;20554;-81
2021/09/10 11:31:44;;;;;;;11.97;8.90;;;25.90;96.30;;;;;;5117597;28;20532;-79
2021/09/10 11:34:31;;;;;;;9.10;8.20;;;25.90;96.40;;;;;;5117769;28;20451;-80
2021/09/10 11:37:01;;;;;;;9.70;8.70;;;25.90;96.50;;;;;;5118234;28;20549;-84
2021/09/10 11:39:28;;;;;;;8.73;7.87;;;25.90;96.70;;;;;;5118930;28;20858;-81
2021/09/10 11:41:54;;;;;;;11.63;9.60;;;25.90;96.70;;;;;;5119148;28;20430;-80
2021/09/10 11:44:21;;;;;;;9.30;8.40;;;25.90;96.60;;;;;;5119859;28;20487;-82
2021/09/10 11:46:50;;;;;;;10.30;8.47;;;25.90;96.50;;;;;;5119475;28;20462;-85
2021/09/10 11:49:17;;;;;;;10.20;9.17;;;25.80;96.80;;;;;;5122484;28;20480;-80
2021/09/10 11:51:46;;;;;;;12.53;9.87;;;25.80;97.10;;;;;;5117916;28;20501;-81
2021/09/10 11:54:15;;;;;;;10.27;9.23;;;25.80;97.30;;;;;;5117876;28;20754;-80
2021/09/10 11:56:45;;;;;;;11.27;9.57;;;25.80;97.30;;;;;;5117894;28;20488;-81
2021/09/10 11:59:21;;;;;;;10.93;9.70;;;26.10;97.10;;;;;;5118918;28;20474;-80
2021/09/10 12:01:50;;;;;;;9.63;8.73;;;26.20;96.80;;;;;;5098700;28;20537;-81
2021/09/10 12:04:36;;;;;;;9.63;8.63;;;26.10;97.10;;;;;;5119028;28;20884;-82
2021/09/10 12:07:05;;;;;;;10.77;9.67;;;26.00;97.20;;;;;;5119318;28;20466;-80
2021/09/10 12:09:33;;;;;;;10.50;9.33;;;25.90;97.40;;;;;;5118811;28;20519;-83
2021/09/10 12:12:09;;;;;;;9.90;8.57;;;25.90;97.50;;;;;;5118386;28;20576;-82
2021/09/10 12:14:39;;;;;;;11.03;8.73;;;25.90;97.30;;;;;;5121338;28;20482;-81
2021/09/10 12:17:13;;;;;;;10.80;9.70;;;25.80;97.70;;;;;;5124312;28;20534;-80
2021/09/10 12:19:55;;;;;;;10.60;9.60;;;25.70;97.50;;;;;;5102508;28;20433;-80
2021/09/10 12:22:44;;;;;;;10.70;9.57;;;25.80;97.70;;;;;;5100598;28;20417;-81
2021/09/10 12:25:26;;;;;;;10.90;9.80;;;25.90;97.70;;;;;;5102369;28;20484;-80
2021/09/10 12:27:54;;;;;;;10.10;8.77;;;26.00;97.40;;;;;;5099635;28;20474;-80
2021/09/10 12:30:23;;;;;;;10.50;9.43;;;26.10;97.20;;;;;;5096882;28;20469;-80
2021/09/10 12:32:52;;;;;;;10.67;9.57;;;26.20;96.70;;;;;;5104667;28;20522;-82
2021/09/10 12:35:19;;;;;;;10.90;9.83;;;26.20;97.00;;;;;;5105221;28;20476;-83
2021/09/10 12:37:58;;;;;;;11.10;9.97;;;26.30;97.00;;;;;;5102819;28;20800;-82
2021/09/10 12:40:25;;;;;;;12.70;10.47;;;26.10;97.20;;;;;;5102281;28;20954;-82
2021/09/10 12:42:52;;;;;;;9.97;9.00;;;26.10;97.30;;;;;;5096737;28;20540;-83
2021/09/10 12:45:19;;;;;;;10.67;9.50;;;26.30;97.30;;;;;;5096953;28;20446;-81